createdAt,value
2022-10-16T00:01:48.427Z,96422.50
2022-10-16T00:04:16.695Z,96458.69
2022-10-16T00:07:09.858Z,96430.00
2022-10-16T00:09:38.199Z,96448.41
2022-10-16T00:12:07.682Z,96452.88
2022-10-16T00:14:35.941Z,96475.88
2022-10-16T00:17:05.574Z,96479.41
2022-10-16T00:19:33.802Z,96449.84
2022-10-16T00:22:02.069Z,96432.50
2022-10-16T00:24:31.022Z,96414.16
2022-10-16T00:26:59.274Z,96419.09
2022-10-16T00:29:27.638Z,96476.94
2022-10-16T00:31:56.080Z,96442.72
2022-10-16T00:34:26.524Z,96476.94
2022-10-16T00:36:55.112Z,96470.81
2022-10-16T00:39:23.471Z,96454.56
2022-10-16T00:41:51.803Z,96478.00
2022-10-16T00:44:53.360Z,96472.28
2022-10-16T00:47:27.303Z,96457.41
2022-10-16T00:50:06.462Z,96433.34
2022-10-16T00:52:34.983Z,96447.97
2022-10-16T00:55:05.393Z,96413.69
2022-10-16T00:57:33.672Z,96462.53
2022-10-16T01:00:02.651Z,96434.22
2022-10-16T01:02:30.926Z,96454.38
2022-10-16T01:05:00.967Z,96418.31
2022-10-16T01:07:45.732Z,96402.84
2022-10-16T01:10:29.228Z,96470.66
2022-10-16T01:13:03.754Z,96465.59
2022-10-16T01:18:17.954Z,96497.00
2022-10-16T01:20:53.602Z,96489.69
2022-10-16T01:23:37.300Z,96463.16
2022-10-16T01:26:29.650Z,96469.75
2022-10-16T01:29:06.034Z,96472.75
2022-10-16T01:31:39.321Z,96483.56
2022-10-16T01:34:14.472Z,96454.22
2022-10-16T01:36:53.094Z,96470.94
2022-10-16T01:39:51.251Z,96467.28
2022-10-16T01:42:23.037Z,96517.06
2022-10-16T01:44:55.250Z,96481.00
2022-10-16T01:47:27.947Z,96452.97
2022-10-16T01:49:58.202Z,96345.75
2022-10-16T01:52:30.082Z,96483.19
2022-10-16T01:55:00.388Z,96444.78
2022-10-16T01:57:30.267Z,96421.69
2022-10-16T02:00:06.601Z,96480.72
2022-10-16T02:02:43.193Z,96448.94
2022-10-16T02:05:41.847Z,96475.81
2022-10-16T02:08:10.369Z,96504.44
2022-10-16T02:10:40.254Z,96488.88
2022-10-16T02:13:12.629Z,96449.75
2022-10-16T02:15:42.458Z,96444.81
2022-10-16T02:18:12.403Z,96440.75
2022-10-16T02:20:52.582Z,96468.63
2022-10-16T02:23:32.359Z,96503.06
2022-10-16T02:26:03.154Z,96502.06
2022-10-16T02:28:38.670Z,96491.25
2022-10-16T02:31:13.972Z,96467.75
2022-10-16T02:33:44.981Z,96514.28
2022-10-16T02:36:13.927Z,96480.06
2022-10-16T02:38:42.923Z,96470.59
2022-10-16T02:41:12.093Z,96478.47
2022-10-16T02:43:41.059Z,96505.69
2022-10-16T02:46:10.784Z,96460.75
2022-10-16T02:48:40.251Z,96470.28
2022-10-16T02:51:08.810Z,96448.75
2022-10-16T02:53:37.015Z,96490.59
2022-10-16T02:56:12.689Z,96462.59
2022-10-16T02:58:41.002Z,96450.63
2022-10-16T03:01:10.676Z,96477.41
2022-10-16T03:03:38.961Z,96510.88
2022-10-16T03:06:07.588Z,96478.09
2022-10-16T03:08:35.872Z,96438.09
2022-10-16T03:11:04.057Z,96456.03
2022-10-16T03:13:32.301Z,96488.81
2022-10-16T03:16:00.510Z,96506.34
2022-10-16T03:18:30.243Z,96511.56
2022-10-16T03:20:58.495Z,96458.81
2022-10-16T03:23:26.773Z,96488.94
2022-10-16T03:25:55.079Z,96473.94
2022-10-16T03:28:23.405Z,96507.03
2022-10-16T03:30:51.640Z,96517.69
2022-10-16T03:33:19.859Z,96500.97
2022-10-16T03:35:55.439Z,96485.03
2022-10-16T03:38:24.105Z,96527.38
2022-10-16T03:40:54.224Z,96425.28
2022-10-16T03:43:23.590Z,96478.28
2022-10-16T03:45:53.318Z,96457.50
2022-10-16T03:48:21.572Z,96449.72
2022-10-16T03:50:49.768Z,96397.91
2022-10-16T03:53:19.810Z,96447.72
2022-10-16T03:55:48.072Z,96522.72
2022-10-16T03:58:16.354Z,96427.69
2022-10-16T04:00:45.372Z,96509.59
2022-10-16T04:03:14.343Z,96482.38
2022-10-16T04:05:42.777Z,96479.50
2022-10-16T04:08:11.097Z,96502.66
2022-10-16T04:10:41.113Z,96475.81
2022-10-16T04:13:09.410Z,96507.97
2022-10-16T04:15:37.667Z,96445.69
2022-10-16T04:18:06.720Z,96501.91
2022-10-16T04:20:35.588Z,96466.88
2022-10-16T04:23:03.803Z,96465.50
2022-10-16T04:25:32.866Z,96491.97
2022-10-16T04:28:02.442Z,96460.97
2022-10-16T04:30:30.697Z,96483.50
2022-10-16T04:32:59.030Z,96521.28
2022-10-16T04:35:27.338Z,96525.91
2022-10-16T04:37:55.542Z,96515.91
2022-10-16T04:40:23.765Z,96529.66
2022-10-16T04:42:52.055Z,96512.84
2022-10-16T04:45:21.625Z,96549.31
2022-10-16T04:47:49.807Z,96529.53
2022-10-16T04:50:18.258Z,96541.38
2022-10-16T04:53:03.183Z,96488.94
2022-10-16T04:55:31.495Z,96505.06
2022-10-16T04:58:00.090Z,96560.66
2022-10-16T05:00:29.938Z,96506.94
2022-10-16T05:02:59.314Z,96518.88
2022-10-16T05:05:27.707Z,96498.38
2022-10-16T05:07:56.110Z,96556.91
2022-10-16T05:13:42.526Z,96535.38
2022-10-16T05:16:37.314Z,96589.28
2022-10-16T05:19:30.631Z,96560.91
2022-10-16T05:21:59.213Z,96562.00
2022-10-16T05:24:28.290Z,96568.75
2022-10-16T05:26:57.190Z,96631.19
2022-10-16T05:29:25.684Z,96542.06
2022-10-16T05:31:55.871Z,96541.56
2022-10-16T05:34:24.165Z,96553.78
2022-10-16T05:36:52.489Z,96583.88
2022-10-16T05:39:22.446Z,96569.03
2022-10-16T05:41:53.426Z,96554.91
2022-10-16T05:44:21.720Z,96569.31
2022-10-16T05:46:50.045Z,96523.47
2022-10-16T05:49:19.678Z,96577.03
2022-10-16T05:51:47.873Z,96562.81
2022-10-16T05:54:16.530Z,96555.00
2022-10-16T05:56:45.221Z,96605.88
2022-10-16T05:59:13.616Z,96547.16
2022-10-16T06:01:41.842Z,96524.53
2022-10-16T06:06:47.406Z,96524.09
2022-10-16T06:09:16.212Z,96586.81
2022-10-16T06:11:44.503Z,96579.88
2022-10-16T06:14:13.076Z,96548.16
2022-10-16T06:16:41.329Z,96559.34
2022-10-16T06:19:10.354Z,96591.00
2022-10-16T06:21:38.753Z,96577.25
2022-10-16T06:24:08.398Z,96525.06
2022-10-16T06:26:36.588Z,96581.81
2022-10-16T06:29:05.066Z,96557.19
2022-10-16T06:31:34.510Z,96582.81
2022-10-16T06:34:05.667Z,96577.63
2022-10-16T06:36:33.982Z,96594.84
2022-10-16T06:39:02.274Z,96594.56
2022-10-16T06:41:31.930Z,96549.34
2022-10-16T06:44:08.151Z,96565.94
2022-10-16T06:46:36.613Z,96585.56
2022-10-16T06:49:05.449Z,96626.22
2022-10-16T06:51:37.918Z,96552.34
2022-10-16T06:54:08.860Z,96604.25
2022-10-16T06:56:38.626Z,96618.03
2022-10-16T06:59:06.891Z,96582.56
2022-10-16T07:01:35.402Z,96660.63
2022-10-16T07:04:04.145Z,96631.00
2022-10-16T07:06:35.322Z,96665.66
2022-10-16T07:09:06.998Z,96734.63
2022-10-16T07:11:35.735Z,96651.34
2022-10-16T07:14:06.407Z,96628.63
2022-10-16T07:16:35.241Z,96625.88
2022-10-16T07:19:04.999Z,96601.66
2022-10-16T07:21:37.011Z,96591.16
2022-10-16T07:24:08.065Z,96658.91
2022-10-16T07:26:40.016Z,96674.88
2022-10-16T07:29:18.933Z,96635.84
2022-10-16T07:31:47.608Z,96616.28
2022-10-16T07:34:19.254Z,96660.81
2022-10-16T07:36:50.570Z,96645.81
2022-10-16T07:39:19.235Z,96645.91
2022-10-16T07:41:47.538Z,96650.84
2022-10-16T07:44:18.548Z,96686.34
2022-10-16T07:46:48.011Z,96626.53
2022-10-16T07:49:16.311Z,96640.38
2022-10-16T07:51:44.530Z,96674.72
2022-10-16T07:54:13.103Z,96608.50
2022-10-16T07:56:43.806Z,96616.59
2022-10-16T07:59:12.879Z,96633.25
2022-10-16T08:01:43.143Z,96700.16
2022-10-16T08:04:12.493Z,96598.09
2022-10-16T08:06:42.573Z,96681.22
2022-10-16T08:09:11.759Z,96696.28
2022-10-16T08:11:39.925Z,96703.19
2022-10-16T08:14:08.116Z,96693.16
2022-10-16T08:16:36.290Z,96658.88
2022-10-16T08:19:05.867Z,96702.59
2022-10-16T08:21:33.982Z,96646.66
2022-10-16T08:24:02.272Z,96693.44
2022-10-16T08:26:30.557Z,96712.50
2022-10-16T08:28:58.755Z,96707.53
2022-10-16T08:31:28.058Z,96659.97
2022-10-16T08:33:56.247Z,96714.09
2022-10-16T08:36:25.796Z,96724.91
2022-10-16T08:38:55.558Z,96681.84
2022-10-16T08:42:03.820Z,96724.81
2022-10-16T08:45:10.628Z,96726.81
2022-10-16T08:47:51.205Z,96687.13
2022-10-16T08:50:28.042Z,96647.81
2022-10-16T08:52:59.277Z,96698.63
2022-10-16T08:55:43.666Z,96706.00
2022-10-16T08:58:16.068Z,96628.41
2022-10-16T09:00:48.956Z,96697.16
2022-10-16T09:03:38.690Z,96682.94
2022-10-16T09:06:40.126Z,96691.94
2022-10-16T09:09:34.953Z,96711.63
2022-10-16T09:12:11.415Z,96694.16
2022-10-16T09:15:03.577Z,96753.38
2022-10-16T09:17:47.699Z,96709.56
2022-10-16T09:20:32.671Z,96708.97
2022-10-16T09:23:16.766Z,96612.59
2022-10-16T09:25:50.324Z,96752.44
2022-10-16T09:28:20.591Z,96715.25
2022-10-16T09:30:50.888Z,96698.50
2022-10-16T09:33:23.520Z,96751.75
2022-10-16T09:35:54.772Z,96722.50
2022-10-16T09:38:29.131Z,96729.69
2022-10-16T09:41:03.676Z,96760.84
2022-10-16T09:43:39.100Z,96719.72
2022-10-16T09:46:09.625Z,96720.53
2022-10-16T09:48:40.334Z,96757.16
2022-10-16T09:51:20.149Z,96691.44
2022-10-16T09:53:50.100Z,96698.03
2022-10-16T09:56:27.583Z,96761.91
2022-10-16T09:58:57.878Z,96778.50
2022-10-16T10:01:32.897Z,96741.22
2022-10-16T10:04:06.561Z,96753.94
2022-10-16T10:06:38.996Z,96703.13
2022-10-16T10:09:18.661Z,96745.31
2022-10-16T10:11:53.138Z,96740.81
2022-10-16T10:14:34.408Z,96759.25
2022-10-16T10:17:16.660Z,96771.94
2022-10-16T10:19:50.995Z,96764.13
2022-10-16T10:22:33.001Z,96722.91
2022-10-16T10:25:22.018Z,96777.94
2022-10-16T10:28:11.597Z,96777.69
2022-10-16T10:30:52.389Z,96745.00
2022-10-16T10:33:30.431Z,96736.53
2022-10-16T10:36:13.089Z,96751.03
2022-10-16T10:38:49.845Z,96756.84
2022-10-16T10:42:10.447Z,96765.78
2022-10-16T10:45:14.211Z,96775.72
2022-10-16T10:48:11.178Z,96763.41
2022-10-16T10:50:45.527Z,96767.22
2022-10-16T10:53:27.285Z,96772.91
2022-10-16T10:56:10.185Z,96748.28
2022-10-16T10:59:09.128Z,96798.53
2022-10-16T11:01:49.883Z,96801.66
2022-10-16T11:04:44.869Z,96738.81
2022-10-16T11:07:19.644Z,96824.72
2022-10-16T11:09:52.993Z,96792.38
2022-10-16T11:12:24.516Z,96707.84
2022-10-16T11:15:03.057Z,96826.75
2022-10-16T11:17:40.602Z,96743.31
2022-10-16T11:20:18.605Z,96755.97
2022-10-16T11:22:52.128Z,96770.81
2022-10-16T11:25:24.697Z,96760.78
2022-10-16T11:27:57.452Z,96770.09
2022-10-16T11:30:28.459Z,96776.53
2022-10-16T11:33:21.442Z,96694.53
2022-10-16T11:35:55.600Z,96753.06
2022-10-16T11:38:31.855Z,96788.13
2022-10-16T11:41:04.799Z,96712.78
2022-10-16T11:43:40.398Z,96789.31
2022-10-16T11:46:15.439Z,96793.69
2022-10-16T11:48:52.691Z,96797.81
2022-10-16T11:51:33.529Z,96776.31
2022-10-16T11:54:09.406Z,96571.47
2022-10-16T11:56:41.356Z,96735.31
2022-10-16T11:59:21.406Z,96766.38
2022-10-16T12:01:54.439Z,96753.75
2022-10-16T12:04:34.950Z,96736.72
2022-10-16T12:07:08.239Z,96753.44
2022-10-16T12:09:41.262Z,96754.91
2022-10-16T12:12:31.480Z,96736.94
2022-10-16T12:15:16.306Z,96722.03
2022-10-16T12:17:48.382Z,96772.38
2022-10-16T12:20:31.293Z,96867.38
2022-10-16T12:23:03.381Z,96762.56
2022-10-16T12:25:34.846Z,96758.31
2022-10-16T12:28:06.273Z,96765.09
2022-10-16T12:30:36.751Z,96722.75
2022-10-16T12:33:08.274Z,96768.13
2022-10-16T12:35:46.538Z,96745.72
2022-10-16T12:38:21.354Z,96756.59
2022-10-16T12:40:58.855Z,96767.28
2022-10-16T12:43:38.918Z,96729.50
2022-10-16T12:46:25.865Z,96746.25
2022-10-16T12:49:09.224Z,96655.84
2022-10-16T12:51:39.560Z,96724.09
2022-10-16T12:54:16.658Z,96591.91
2022-10-16T12:57:04.191Z,96807.00
2022-10-16T12:59:45.969Z,96761.00
2022-10-16T13:02:48.839Z,96744.25
2022-10-16T13:08:33.000Z,96799.97
2022-10-16T13:11:09.772Z,96699.03
2022-10-16T13:14:09.510Z,96767.41
2022-10-16T13:16:52.654Z,96770.63
2022-10-16T13:19:31.698Z,96790.09
2022-10-16T13:22:07.902Z,96732.78
2022-10-16T13:24:58.302Z,96875.91
2022-10-16T13:27:39.031Z,96714.56
2022-10-16T13:30:17.597Z,96798.41
2022-10-16T13:32:49.399Z,96716.28
2022-10-16T13:35:23.258Z,96670.38
2022-10-16T13:37:52.179Z,96769.91
2022-10-16T13:40:24.574Z,96731.22
2022-10-16T13:42:53.404Z,96810.09
2022-10-16T13:45:26.199Z,96775.22
2022-10-16T13:48:05.387Z,96778.09
2022-10-16T13:50:33.935Z,96762.75
2022-10-16T13:53:09.320Z,96799.75
2022-10-16T13:55:38.896Z,96753.84
2022-10-16T13:58:09.504Z,96771.97
2022-10-16T14:03:17.300Z,96712.13
2022-10-16T14:05:56.822Z,96795.44
2022-10-16T14:08:27.825Z,96757.66
2022-10-16T14:11:00.221Z,96745.63
2022-10-16T14:13:34.535Z,96768.81
2022-10-16T14:16:09.472Z,96787.47
2022-10-16T14:18:39.881Z,96766.72
2022-10-16T14:21:13.985Z,96769.63
2022-10-16T14:23:44.247Z,96797.34
2022-10-16T14:26:19.922Z,96820.81
2022-10-16T14:28:49.989Z,96783.84
2022-10-16T14:31:40.663Z,96760.47
2022-10-16T14:34:28.562Z,96760.81
2022-10-16T14:36:57.633Z,96812.16
2022-10-16T14:39:28.663Z,96805.75
2022-10-16T14:42:00.412Z,96773.97
2022-10-16T14:44:33.876Z,96777.66
2022-10-16T14:47:11.831Z,96791.19
2022-10-16T14:49:40.077Z,96779.19
2022-10-16T14:52:13.546Z,96720.84
2022-10-16T14:54:42.147Z,96794.81
2022-10-16T14:57:21.094Z,96808.97
2022-10-16T14:59:52.090Z,96826.16
2022-10-16T15:02:29.431Z,96820.03
2022-10-16T15:04:58.579Z,96783.28
2022-10-16T15:07:27.515Z,96696.75
2022-10-16T15:09:58.021Z,96793.84
2022-10-16T15:12:27.601Z,96760.84
2022-10-16T15:14:55.892Z,96802.06
2022-10-16T15:17:24.402Z,96766.81
2022-10-16T15:19:52.843Z,96781.28
2022-10-16T15:22:24.187Z,96789.50
2022-10-16T15:24:52.395Z,96766.28
2022-10-16T15:27:20.596Z,96802.81
2022-10-16T15:29:50.179Z,96768.81
2022-10-16T15:32:18.431Z,96811.25
2022-10-16T15:34:46.711Z,96782.03
2022-10-16T15:37:14.987Z,96856.63
2022-10-16T15:39:43.245Z,96773.66
2022-10-16T15:42:12.058Z,96789.69
2022-10-16T15:44:40.283Z,96791.88
2022-10-16T15:47:11.082Z,96739.88
2022-10-16T15:49:39.316Z,96820.81
2022-10-16T15:52:07.576Z,96822.84
2022-10-16T15:54:35.886Z,96803.97
2022-10-16T15:57:04.151Z,96848.56
2022-10-16T15:59:32.554Z,96845.34
2022-10-16T16:02:00.834Z,96863.78
2022-10-16T16:07:24.906Z,96834.22
2022-10-16T16:09:53.226Z,96835.09
2022-10-16T16:12:21.817Z,96794.41
2022-10-16T16:14:50.176Z,96779.25
2022-10-16T16:17:18.639Z,96852.03
2022-10-16T16:19:48.609Z,96860.22
2022-10-16T16:22:16.823Z,96808.78
2022-10-16T16:24:45.027Z,96845.97
2022-10-16T16:27:14.491Z,96831.16
2022-10-16T16:29:42.714Z,96806.19
2022-10-16T16:32:11.147Z,96807.03
2022-10-16T16:34:39.413Z,96810.53
2022-10-16T16:37:09.017Z,96814.03
2022-10-16T16:39:37.219Z,96812.88
2022-10-16T16:42:07.225Z,96858.00
2022-10-16T16:44:37.104Z,96831.13
2022-10-16T16:47:05.618Z,96883.84
2022-10-16T16:49:34.374Z,96845.72
2022-10-16T16:52:02.809Z,96814.56
2022-10-16T16:54:37.322Z,96830.94
2022-10-16T16:57:05.735Z,96835.88
2022-10-16T16:59:34.626Z,96865.81
2022-10-16T17:02:03.255Z,96892.91
2022-10-16T17:04:31.535Z,96850.66
2022-10-16T17:06:59.838Z,96876.69
2022-10-16T17:09:28.182Z,96893.91
2022-10-16T17:11:57.786Z,96858.22
2022-10-16T17:14:26.128Z,96866.44
2022-10-16T17:16:54.813Z,96860.88
2022-10-16T17:19:23.491Z,96863.34
2022-10-16T17:21:53.066Z,96874.59
2022-10-16T17:24:21.840Z,96887.13
2022-10-16T17:26:50.782Z,96883.25
2022-10-16T17:29:20.877Z,96870.34
2022-10-16T17:31:50.816Z,96893.28
2022-10-16T17:34:19.593Z,96838.78
2022-10-16T17:36:48.096Z,96829.75
2022-10-16T17:39:19.072Z,96885.53
2022-10-16T17:41:48.844Z,96863.34
2022-10-16T17:44:20.791Z,96876.66
2022-10-16T17:46:53.407Z,96858.03
2022-10-16T17:49:22.854Z,96870.06
2022-10-16T17:51:52.747Z,96887.53
2022-10-16T17:54:25.677Z,96879.38
2022-10-16T17:56:54.024Z,96902.28
2022-10-16T17:59:23.105Z,96819.69
2022-10-16T18:01:52.946Z,96895.56
2022-10-16T18:04:29.154Z,96890.84
2022-10-16T18:06:57.330Z,96884.47
2022-10-16T18:09:25.506Z,96824.41
2022-10-16T18:11:59.929Z,96888.78
2022-10-16T18:14:29.969Z,96847.72
2022-10-16T18:17:00.254Z,96995.31
2022-10-16T18:19:28.999Z,96893.25
2022-10-16T18:21:57.450Z,96928.16
2022-10-16T18:24:27.022Z,96892.03
2022-10-16T18:26:57.439Z,96901.03
2022-10-16T18:29:28.137Z,96892.44
2022-10-16T18:31:57.128Z,96884.66
2022-10-16T18:34:27.936Z,96883.78
2022-10-16T18:36:57.506Z,96940.34
2022-10-16T18:39:25.761Z,96906.75
2022-10-16T18:41:59.509Z,96994.84
2022-10-16T18:44:28.342Z,96900.13
2022-10-16T18:46:59.097Z,96884.56
2022-10-16T18:49:29.648Z,96954.81
2022-10-16T18:51:58.605Z,96871.69
2022-10-16T18:54:26.925Z,96977.47
2022-10-16T18:56:55.381Z,96919.34
2022-10-16T18:59:23.893Z,96923.34
2022-10-16T19:01:52.540Z,96971.94
2022-10-16T19:04:22.447Z,96949.31
2022-10-16T19:06:54.450Z,96768.19
2022-10-16T19:09:25.599Z,96931.63
2022-10-16T19:11:53.909Z,96950.72
2022-10-16T19:14:22.175Z,96942.53
2022-10-16T19:16:50.430Z,96926.75
2022-10-16T19:19:19.888Z,96908.09
2022-10-16T19:21:51.182Z,96948.75
2022-10-16T19:24:21.297Z,96974.31
2022-10-16T19:26:49.583Z,96984.56
2022-10-16T19:29:17.867Z,96998.28
2022-10-16T19:31:46.336Z,96977.34
2022-10-16T19:34:14.664Z,96967.00
2022-10-16T19:36:43.402Z,96960.28
2022-10-16T19:39:15.882Z,96998.72
2022-10-16T19:41:49.275Z,96981.47
2022-10-16T19:44:18.567Z,96975.16
2022-10-16T19:46:48.869Z,96785.22
2022-10-16T19:49:21.690Z,96972.72
2022-10-16T19:51:51.807Z,96996.00
2022-10-16T19:54:20.251Z,96968.44
2022-10-16T19:56:50.670Z,96982.50
2022-10-16T19:59:20.241Z,97012.28
2022-10-16T20:01:49.102Z,97006.13
2022-10-16T20:04:23.297Z,96957.38
2022-10-16T20:06:51.689Z,96985.66
2022-10-16T20:09:19.975Z,96921.91
2022-10-16T20:11:48.234Z,97013.31
2022-10-16T20:14:18.508Z,97037.84
2022-10-16T20:16:46.752Z,96996.38
2022-10-16T20:19:15.989Z,96963.63
2022-10-16T20:21:44.258Z,96998.94
2022-10-16T20:24:12.517Z,96979.53
2022-10-16T20:26:42.832Z,96974.34
2022-10-16T20:29:11.540Z,96975.00
2022-10-16T20:31:42.194Z,97016.59
2022-10-16T20:34:13.342Z,97003.91
2022-10-16T20:36:45.259Z,96992.63
2022-10-16T20:39:14.735Z,97015.50
2022-10-16T20:41:42.982Z,97034.63
2022-10-16T20:44:11.239Z,97029.69
2022-10-16T20:46:41.652Z,97006.34
2022-10-16T20:49:27.637Z,97007.56
2022-10-16T20:51:56.942Z,97068.91
2022-10-16T20:54:25.162Z,97061.50
2022-10-16T20:56:56.180Z,97040.66
2022-10-16T20:59:24.892Z,97034.06
2022-10-16T21:01:54.539Z,97064.25
2022-10-16T21:04:22.858Z,97052.34
2022-10-16T21:06:51.062Z,97051.44
2022-10-16T21:09:19.289Z,97077.56
2022-10-16T21:11:47.498Z,97023.28
2022-10-16T21:14:15.669Z,97076.34
2022-10-16T21:16:43.985Z,97020.56
2022-10-16T21:19:19.106Z,97035.63
2022-10-16T21:21:47.310Z,97089.94
2022-10-16T21:24:17.857Z,97090.66
2022-10-16T21:26:46.296Z,97064.84
2022-10-16T21:29:14.849Z,97080.75
2022-10-16T21:31:44.421Z,97073.63
2022-10-16T21:34:12.763Z,96915.28
2022-10-16T21:36:44.039Z,97013.94
2022-10-16T21:39:14.976Z,96971.16
2022-10-16T21:41:49.400Z,97106.69
2022-10-16T21:44:20.087Z,97062.41
2022-10-16T21:46:48.821Z,97079.31
2022-10-16T21:49:19.427Z,97029.22
2022-10-16T21:51:50.956Z,97097.03
2022-10-16T21:54:21.532Z,97108.88
2022-10-16T21:56:50.424Z,97072.91
2022-10-16T21:59:18.766Z,97031.56
2022-10-16T22:01:47.120Z,97027.47
2022-10-16T22:04:17.499Z,97098.94
2022-10-16T22:06:46.212Z,97096.63
2022-10-16T22:09:17.896Z,97097.03
2022-10-16T22:11:46.699Z,97083.50
2022-10-16T22:14:18.504Z,97078.66
2022-10-16T22:16:47.457Z,97074.88
2022-10-16T22:19:18.814Z,97009.31
2022-10-16T22:21:48.639Z,97095.44
2022-10-16T22:24:19.066Z,97065.09
2022-10-16T22:26:48.246Z,96929.59
2022-10-16T22:29:17.631Z,97036.03
2022-10-16T22:31:46.125Z,97079.66
2022-10-16T22:34:15.627Z,97080.00
2022-10-16T22:36:43.861Z,97058.91
2022-10-16T22:39:12.462Z,97117.81
2022-10-16T22:41:42.437Z,97117.81
2022-10-16T22:44:13.795Z,97046.38
2022-10-16T22:46:42.200Z,97088.72
2022-10-16T22:49:10.565Z,97078.50
2022-10-16T22:51:38.875Z,97060.59
2022-10-16T22:54:07.114Z,97067.53
2022-10-16T22:56:36.743Z,97082.81
2022-10-16T22:59:06.854Z,97026.50
2022-10-16T23:01:38.057Z,97036.50
2022-10-16T23:04:06.565Z,97092.88
2022-10-16T23:06:35.468Z,97055.69
2022-10-16T23:09:04.428Z,97086.16
2022-10-16T23:11:32.978Z,97038.34
2022-10-16T23:14:01.309Z,97084.50
2022-10-16T23:16:30.913Z,97048.31
2022-10-16T23:18:59.992Z,97125.16
2022-10-16T23:21:28.397Z,97081.22
2022-10-16T23:23:56.948Z,97077.75
2022-10-16T23:26:27.584Z,97117.44
2022-10-16T23:28:58.500Z,97080.41
2022-10-16T23:31:27.499Z,97077.97
2022-10-16T23:33:57.990Z,97094.47
2022-10-16T23:36:26.810Z,97107.22
2022-10-16T23:38:55.833Z,97066.38
2022-10-16T23:41:24.185Z,97120.59
2022-10-16T23:43:52.958Z,97113.66
2022-10-16T23:46:21.231Z,97084.25
2022-10-16T23:48:49.449Z,97053.22
2022-10-16T23:51:19.055Z,97109.88
2022-10-16T23:53:47.372Z,97108.38
2022-10-16T23:56:15.878Z,97063.13
2022-10-16T23:58:44.243Z,97088.56
